Time;durP1;ratioP1;P1;durP2;ratioP2;P2;SDS_P1;SDS_P2;PMS_P1;PMS_P2;Temp;Humidity;BMP_temperature;BMP_pressure;BME280_temperature;BME280_humidity;BME280_pressure;Samples;Min_cycle;Max_cycle;Signal;HPM_P1;HPM_P2
2021/07/27 00:01:31;;;;;;;10.20;8.07;;;24.70;95.20;;;;;;5093655;28;20110;-88
2021/07/27 00:03:57;;;;;;;9.48;8.48;;;24.70;95.30;;;;;;5093174;28;20035;-88
2021/07/27 00:06:23;;;;;;;8.85;7.95;;;24.70;95.40;;;;;;5093604;28;20028;-87
2021/07/27 00:08:48;;;;;;;9.80;8.80;;;24.60;95.40;;;;;;5093482;28;20028;-88
2021/07/27 00:11:14;;;;;;;11.60;8.70;;;24.60;95.40;;;;;;5093350;28;20039;-88
2021/07/27 00:13:40;;;;;;;11.20;8.63;;;24.60;95.50;;;;;;5093508;28;20024;-88
2021/07/27 00:16:06;;;;;;;9.13;8.23;;;24.50;95.50;;;;;;5093337;28;20025;-88
2021/07/27 00:18:32;;;;;;;10.50;9.18;;;24.50;95.70;;;;;;5093423;28;20021;-88
2021/07/27 00:21:00;;;;;;;9.88;8.85;;;24.50;95.60;;;;;;5094484;28;20028;-88
2021/07/27 00:23:26;;;;;;;12.38;9.48;;;24.50;95.60;;;;;;5094439;28;20478;-88
2021/07/27 00:25:51;;;;;;;9.85;8.82;;;24.40;95.70;;;;;;5094346;28;20032;-88
2021/07/27 00:28:17;;;;;;;10.43;9.35;;;24.40;95.80;;;;;;5094317;28;20028;-88
2021/07/27 00:30:43;;;;;;;10.27;8.98;;;24.40;95.70;;;;;;5093475;28;20473;-88
2021/07/27 00:33:08;;;;;;;10.57;9.32;;;24.40;95.80;;;;;;5093094;28;20028;-88
2021/07/27 00:35:34;;;;;;;10.93;9.63;;;24.30;95.80;;;;;;5093201;28;20050;-88
2021/07/27 00:38:09;;;;;;;10.68;9.60;;;24.30;95.80;;;;;;5094343;28;20074;-88
2021/07/27 00:40:39;;;;;;;10.43;9.40;;;24.30;95.80;;;;;;5092926;28;20024;-88
2021/07/27 00:43:16;;;;;;;9.93;8.70;;;24.30;95.90;;;;;;5077560;28;20094;-88
2021/07/27 00:45:42;;;;;;;10.23;9.23;;;24.20;95.90;;;;;;5072820;28;20402;-88
2021/07/27 00:48:08;;;;;;;10.35;9.05;;;24.20;95.90;;;;;;5073623;28;20028;-88
2021/07/27 00:50:35;;;;;;;11.52;9.38;;;24.20;96.00;;;;;;5072653;28;20039;-88
2021/07/27 00:53:02;;;;;;;11.38;9.65;;;24.20;96.10;;;;;;5072362;28;20513;-88
2021/07/27 00:55:29;;;;;;;11.20;9.57;;;24.20;96.10;;;;;;5072750;28;20488;-88
2021/07/27 00:57:55;;;;;;;11.93;10.05;;;24.20;96.20;;;;;;5073845;28;20103;-88
2021/07/27 01:00:22;;;;;;;11.82;9.70;;;24.10;96.20;;;;;;5072613;28;20115;-88
2021/07/27 01:02:48;;;;;;;12.27;9.32;;;24.00;96.20;;;;;;5073894;28;20021;-88
2021/07/27 01:05:14;;;;;;;12.48;10.10;;;24.00;96.30;;;;;;5072977;28;20024;-88
2021/07/27 01:07:41;;;;;;;10.55;9.50;;;24.00;96.30;;;;;;5072336;28;20024;-88
2021/07/27 01:10:10;;;;;;;12.02;9.77;;;24.00;96.40;;;;;;5073695;28;20021;-88
2021/07/27 01:12:37;;;;;;;12.00;9.68;;;24.00;96.30;;;;;;5072651;28;20025;-88
2021/07/27 01:15:04;;;;;;;11.50;9.88;;;24.00;96.30;;;;;;5073430;28;20054;-88
2021/07/27 01:17:30;;;;;;;11.10;9.52;;;24.00;96.30;;;;;;5077599;28;20055;-88
2021/07/27 01:20:50;;;;;;;13.65;9.77;;;23.90;96.30;;;;;;5076243;28;20056;-88
2021/07/27 01:39:25;;;;;;;11.30;9.88;;;23.80;96.50;;;;;;5077879;28;20055;-88
2021/07/27 01:42:08;;;;;;;12.10;10.00;;;23.80;96.60;;;;;;5076237;28;20025;-88
2021/07/27 01:44:51;;;;;;;11.65;10.30;;;23.80;96.60;;;;;;5076157;28;20489;-88
2021/07/27 01:47:18;;;;;;;14.48;10.45;;;23.80;96.70;;;;;;5075752;28;20025;-88
2021/07/27 01:49:46;;;;;;;11.65;10.45;;;23.70;96.70;;;;;;5076245;28;20027;-88
2021/07/27 01:52:15;;;;;;;11.48;9.93;;;23.70;96.80;;;;;;5076179;28;20524;-88
2021/07/27 01:54:41;;;;;;;14.25;11.02;;;23.70;96.80;;;;;;5076846;28;20124;-88
2021/07/27 01:57:15;;;;;;;11.70;10.40;;;23.70;97.10;;;;;;5076034;28;20058;-88
2021/07/27 01:59:59;;;;;;;10.90;9.70;;;23.60;96.80;;;;;;5075442;28;20059;-88
2021/07/27 02:02:26;;;;;;;11.43;10.23;;;23.60;96.80;;;;;;5076919;28;20357;-88
2021/07/27 02:04:52;;;;;;;11.32;10.13;;;23.60;96.80;;;;;;5092844;28;20051;-88
2021/07/27 02:07:18;;;;;;;11.43;10.23;;;23.60;96.90;;;;;;5076777;28;20037;-88
2021/07/27 02:09:45;;;;;;;13.57;11.02;;;23.60;96.90;;;;;;5076031;28;20039;-88
2021/07/27 02:12:23;;;;;;;14.10;10.52;;;23.60;97.00;;;;;;5075621;28;20024;-88
2021/07/27 02:15:09;;;;;;;11.68;10.48;;;23.60;97.00;;;;;;5075669;28;20074;-88
2021/07/27 02:17:37;;;;;;;11.50;10.30;;;23.60;97.00;;;;;;5076717;28;20031;-88
2021/07/27 02:20:06;;;;;;;11.88;9.88;;;23.60;97.00;;;;;;5075200;28;20025;-88
2021/07/27 02:22:35;;;;;;;11.23;10.05;;;23.60;97.00;;;;;;5074828;28;20020;-88
2021/07/27 02:25:01;;;;;;;10.45;9.45;;;23.50;97.10;;;;;;5084328;28;20020;-88
2021/07/27 02:27:28;;;;;;;12.82;10.45;;;23.50;97.10;;;;;;5082544;28;20562;-88
2021/07/27 02:29:53;;;;;;;12.75;10.77;;;23.50;97.10;;;;;;5076416;28;20371;-88
2021/07/27 02:32:20;;;;;;;12.55;10.95;;;23.50;97.20;;;;;;5076199;28;20032;-88
2021/07/27 02:38:08;;;;;;;12.13;10.88;;;23.50;97.20;;;;;;5076418;28;20024;-88
2021/07/27 02:40:34;;;;;;;15.77;10.50;;;23.50;97.30;;;;;;5075815;28;20025;-88
2021/07/27 02:43:02;;;;;;;13.05;11.50;;;23.50;97.30;;;;;;5074602;28;20086;-88
2021/07/27 02:45:28;;;;;;;12.73;10.88;;;23.50;97.30;;;;;;5079249;28;20024;-88
2021/07/27 02:47:54;;;;;;;12.15;10.65;;;23.40;97.40;;;;;;5094794;28;20020;-88
2021/07/27 02:50:27;;;;;;;12.75;11.15;;;23.50;97.40;;;;;;5096285;28;20027;-88
2021/07/27 02:52:53;;;;;;;13.93;12.13;;;23.50;97.40;;;;;;5094785;28;20048;-88
2021/07/27 02:55:19;;;;;;;13.32;11.57;;;23.40;97.50;;;;;;5095128;28;20367;-88
2021/07/27 02:57:48;;;;;;;12.63;11.23;;;23.50;97.50;;;;;;5096388;28;20082;-88
2021/07/27 03:00:14;;;;;;;14.02;11.07;;;23.40;97.50;;;;;;5094127;28;20024;-88
2021/07/27 03:02:44;;;;;;;14.77;11.48;;;23.50;97.60;;;;;;5093019;28;20054;-87
2021/07/27 03:05:11;;;;;;;;;;;23.40;97.60;;;;;;5075973;28;20025;-88
2021/07/27 03:10:18;;;;;;;11.63;10.43;;;23.50;97.70;;;;;;5075719;28;20108;-88
2021/07/27 03:12:43;;;;;;;12.15;10.95;;;23.50;98.00;;;;;;5074403;28;20122;-88
2021/07/27 03:15:11;;;;;;;14.40;11.65;;;23.50;97.80;;;;;;5074255;28;20048;-88
2021/07/27 03:17:37;;;;;;;13.55;11.80;;;23.50;97.90;;;;;;5074031;28;20017;-88
2021/07/27 18:20:40;;;;;;;14.30;11.20;;;28.00;73.80;;;;;;5091534;27;20370;-88
2021/07/27 18:23:06;;;;;;;16.45;10.55;;;27.60;72.60;;;;;;5091330;28;20108;-86
2021/07/27 18:25:33;;;;;;;14.35;10.25;;;27.50;73.50;;;;;;5089878;28;20482;-91
2021/07/27 18:27:59;;;;;;;15.65;9.73;;;27.60;74.20;;;;;;5089795;28;20023;-88
2021/07/27 18:30:24;;;;;;;16.92;11.10;;;27.60;74.60;;;;;;5089775;28;20107;-87
2021/07/27 18:32:50;;;;;;;31.75;19.75;;;27.60;74.20;;;;;;5090121;28;20036;-86
2021/07/27 18:35:16;;;;;;;21.95;14.95;;;27.70;73.90;;;;;;5089999;28;20063;-87
2021/07/27 18:37:42;;;;;;;30.42;15.10;;;27.70;73.30;;;;;;5089975;28;20119;-85
2021/07/27 18:40:09;;;;;;;19.73;14.32;;;27.80;73.00;;;;;;5089874;28;20083;-87
2021/07/27 18:42:35;;;;;;;22.35;14.63;;;27.80;73.30;;;;;;5089192;28;20020;-80
2021/07/27 18:45:02;;;;;;;25.85;15.25;;;27.80;72.80;;;;;;5070519;28;20498;-81
2021/07/27 18:47:28;;;;;;;21.90;15.75;;;27.90;72.20;;;;;;5070244;28;20050;-83
2021/07/27 18:49:53;;;;;;;26.67;14.93;;;27.90;71.70;;;;;;5070239;28;20025;-81
2021/07/27 18:52:19;;;;;;;27.13;15.20;;;27.90;71.00;;;;;;5070264;28;20021;-81
2021/07/27 18:54:45;;;;;;;25.63;14.90;;;28.00;71.50;;;;;;5073921;28;20017;-84
2021/07/27 18:57:11;;;;;;;26.75;15.00;;;28.00;71.40;;;;;;5090236;28;20043;-84
2021/07/27 18:59:36;;;;;;;26.02;15.02;;;28.00;71.40;;;;;;5090094;28;20031;-85
2021/07/27 19:02:06;;;;;;;19.73;13.57;;;28.00;71.80;;;;;;5088936;28;20024;-83
2021/07/27 19:04:31;;;;;;;26.80;13.75;;;28.00;71.80;;;;;;5090209;28;20023;-80
2021/07/27 19:06:57;;;;;;;24.85;14.77;;;28.00;71.80;;;;;;5088848;28;20378;-85
2021/07/27 19:09:23;;;;;;;24.17;15.93;;;28.00;71.10;;;;;;5090284;28;20123;-80
2021/07/27 19:11:48;;;;;;;27.90;17.75;;;28.00;71.10;;;;;;5090104;28;20086;-81
2021/07/27 19:14:14;;;;;;;24.73;14.82;;;27.90;71.20;;;;;;5090118;28;20047;-88
2021/07/27 19:16:40;;;;;;;21.63;14.50;;;28.00;71.50;;;;;;5089986;28;20028;-83
2021/07/27 19:19:05;;;;;;;24.05;14.18;;;27.90;70.90;;;;;;5088673;28;20834;-84
2021/07/27 19:21:31;;;;;;;25.73;15.38;;;27.90;70.60;;;;;;5089826;28;20031;-82
2021/07/27 19:23:57;;;;;;;25.88;14.30;;;27.90;70.70;;;;;;5089818;28;20505;-80
2021/07/27 19:26:23;;;;;;;20.98;14.40;;;27.90;70.40;;;;;;5089772;28;20024;-81
2021/07/27 19:28:49;;;;;;;18.70;12.43;;;27.80;70.70;;;;;;5089826;28;20124;-85
2021/07/27 19:31:14;;;;;;;23.33;12.27;;;27.80;70.80;;;;;;5080811;28;20021;-87
2021/07/27 19:33:43;;;;;;;24.50;12.48;;;27.70;70.80;;;;;;5075248;28;20033;-83
2021/07/27 19:36:11;;;;;;;19.98;11.80;;;27.70;70.40;;;;;;5075311;28;20021;-83
2021/07/27 19:38:38;;;;;;;24.85;14.70;;;27.60;70.50;;;;;;5057918;28;20028;-85
2021/07/27 19:41:06;;;;;;;16.33;10.65;;;27.60;69.70;;;;;;5056194;28;20044;-84
2021/07/27 19:48:43;;;;;;;14.38;8.43;;;27.50;69.50;;;;;;5071659;28;20028;-84
2021/07/27 19:51:09;;;;;;;9.45;7.38;;;27.50;70.10;;;;;;5075972;28;20047;-83
2021/07/27 19:53:34;;;;;;;9.45;6.82;;;27.40;69.50;;;;;;5075913;28;20024;-83
2021/07/27 19:56:00;;;;;;;11.88;7.97;;;27.40;69.60;;;;;;5075810;28;20389;-82
2021/07/27 19:58:26;;;;;;;19.77;14.23;;;27.40;69.70;;;;;;5074416;28;20024;-83
2021/07/27 20:00:52;;;;;;;15.15;11.68;;;27.30;69.90;;;;;;5074576;28;20055;-83
2021/07/27 20:03:18;;;;;;;13.20;10.90;;;27.30;70.00;;;;;;5075905;28;20100;-82
2021/07/27 20:05:44;;;;;;;16.42;12.05;;;27.30;70.10;;;;;;5075756;28;20099;-83
2021/07/27 20:08:10;;;;;;;18.20;14.20;;;27.30;70.30;;;;;;5075603;28;20103;-84
2021/07/27 20:10:36;;;;;;;26.73;15.98;;;27.30;70.30;;;;;;5074411;28;20064;-83
2021/07/27 20:13:02;;;;;;;14.45;10.75;;;27.30;70.50;;;;;;5075658;28;20035;-89
2021/07/27 20:15:27;;;;;;;11.57;9.60;;;27.40;70.60;;;;;;5066093;28;20028;-86
2021/07/27 20:17:53;;;;;;;19.17;11.93;;;27.40;70.80;;;;;;5056104;28;20028;-80
2021/07/27 20:20:19;;;;;;;24.85;13.35;;;27.40;70.80;;;;;;5055004;28;20057;-81
2021/07/27 20:22:44;;;;;;;101.18;69.47;;;27.50;70.80;;;;;;5055301;28;20105;-81
2021/07/27 20:25:11;;;;;;;24.73;18.55;;;27.50;70.90;;;;;;5055005;28;20386;-83
2021/07/27 20:27:36;;;;;;;18.23;12.95;;;27.50;71.10;;;;;;5055126;28;20063;-83
2021/07/27 20:30:04;;;;;;;12.00;9.27;;;27.50;71.10;;;;;;5053687;28;20048;-84
2021/07/27 20:32:29;;;;;;;9.13;7.90;;;27.50;71.90;;;;;;5053749;28;20079;-84
2021/07/27 20:34:55;;;;;;;10.88;7.15;;;27.50;71.40;;;;;;5053712;28;20029;-84
2021/07/27 20:37:22;;;;;;;9.15;6.80;;;27.50;71.50;;;;;;5053785;28;20394;-84
2021/07/27 20:39:48;;;;;;;13.50;7.50;;;27.50;71.70;;;;;;5053510;28;20376;-84
2021/07/27 20:42:14;;;;;;;12.23;7.32;;;27.50;71.70;;;;;;5062019;28;20027;-84
2021/07/27 20:44:41;;;;;;;12.02;6.70;;;27.50;71.80;;;;;;5073743;28;20020;-84
2021/07/27 20:47:07;;;;;;;13.52;7.28;;;27.50;72.00;;;;;;5074910;28;20067;-84
2021/07/27 20:49:33;;;;;;;8.00;6.22;;;27.50;72.10;;;;;;5073689;28;20474;-84
2021/07/27 20:51:58;;;;;;;10.40;7.00;;;27.50;72.40;;;;;;5074862;28;20095;-84
2021/07/27 20:54:24;;;;;;;9.48;6.43;;;27.50;72.60;;;;;;5070057;28;20429;-83
2021/07/27 20:56:50;;;;;;;9.75;6.78;;;27.50;72.60;;;;;;5055122;28;20032;-84
2021/07/27 20:59:16;;;;;;;13.15;6.78;;;27.50;72.60;;;;;;5054977;28;20028;-84
2021/07/27 21:01:41;;;;;;;14.45;8.10;;;27.40;72.70;;;;;;5053432;28;20094;-81
2021/07/27 21:04:08;;;;;;;12.27;7.43;;;27.50;72.90;;;;;;5054951;28;20508;-82
2021/07/27 21:06:33;;;;;;;11.57;6.93;;;27.40;73.10;;;;;;5054578;28;20025;-83
2021/07/27 21:08:59;;;;;;;11.85;7.20;;;27.40;73.30;;;;;;5054548;28;20029;-81
2021/07/27 21:11:25;;;;;;;9.85;7.95;;;27.40;73.40;;;;;;5054474;28;20383;-82
2021/07/27 21:13:50;;;;;;;31.35;15.18;;;27.40;73.60;;;;;;5054466;28;20032;-82
2021/07/27 21:16:16;;;;;;;13.00;9.23;;;27.40;73.70;;;;;;5054752;28;20029;-83
2021/07/27 21:18:42;;;;;;;13.60;8.43;;;27.40;74.00;;;;;;5054522;28;20076;-82
2021/07/27 21:21:08;;;;;;;10.00;7.60;;;27.40;74.00;;;;;;5054096;28;20024;-82
2021/07/27 21:23:34;;;;;;;15.60;8.23;;;27.40;74.00;;;;;;5054296;28;20460;-83
2021/07/27 21:26:07;;;;;;;61.80;42.10;;;27.40;74.10;;;;;;5054148;28;20021;-83
2021/07/27 21:28:34;;;;;;;27.73;15.85;;;27.40;73.80;;;;;;5052944;28;20029;-84
2021/07/27 21:31:00;;;;;;;14.23;11.18;;;27.30;73.30;;;;;;5073963;28;20020;-84
2021/07/27 21:33:27;;;;;;;14.00;8.50;;;27.40;73.60;;;;;;5074378;28;20016;-84
2021/07/27 21:35:52;;;;;;;15.63;8.25;;;27.30;73.50;;;;;;5064713;28;20039;-84
2021/07/27 21:38:18;;;;;;;16.27;8.38;;;27.30;73.30;;;;;;5052763;28;20116;-84
2021/07/27 21:40:44;;;;;;;12.55;7.30;;;27.40;72.70;;;;;;5052707;28;20025;-84
2021/07/27 21:43:09;;;;;;;12.20;6.50;;;27.30;72.40;;;;;;5052766;28;20052;-84
2021/07/27 21:45:35;;;;;;;10.75;6.10;;;27.30;72.70;;;;;;5052707;28;20024;-84
2021/07/27 21:48:02;;;;;;;8.40;6.55;;;27.30;72.80;;;;;;5069421;28;20438;-84
2021/07/27 21:50:28;;;;;;;9.27;6.53;;;27.30;72.80;;;;;;5072576;28;20025;-84
2021/07/27 21:52:54;;;;;;;15.63;7.10;;;27.30;72.70;;;;;;5072559;28;20024;-85
2021/07/27 21:55:19;;;;;;;8.93;6.25;;;27.30;72.50;;;;;;5072360;28;20032;-84
2021/07/27 21:57:45;;;;;;;12.38;6.68;;;27.20;72.60;;;;;;5073798;28;20036;-83
2021/07/27 22:00:11;;;;;;;11.73;6.68;;;27.30;72.70;;;;;;5073677;28;20029;-84
2021/07/27 22:02:37;;;;;;;9.35;6.32;;;27.30;72.50;;;;;;5073581;28;20020;-84
2021/07/27 22:05:04;;;;;;;10.63;7.28;;;27.30;72.60;;;;;;5073226;28;20386;-84
2021/07/27 22:07:30;;;;;;;9.70;6.32;;;27.20;71.90;;;;;;5072127;28;20501;-84
2021/07/27 22:09:55;;;;;;;9.80;6.07;;;27.20;71.90;;;;;;5073435;28;20131;-84
2021/07/27 22:12:21;;;;;;;8.07;6.15;;;27.20;72.10;;;;;;5073436;28;20379;-85
2021/07/27 22:14:47;;;;;;;8.65;6.57;;;27.20;72.10;;;;;;5073396;28;20475;-84
2021/07/27 22:17:13;;;;;;;15.98;7.20;;;27.20;72.40;;;;;;5073478;28;20470;-84
2021/07/27 22:19:39;;;;;;;8.85;6.82;;;27.20;72.30;;;;;;5067636;28;20572;-84
2021/07/27 22:22:06;;;;;;;9.85;6.70;;;27.20;72.40;;;;;;5053212;28;20056;-84
2021/07/27 22:24:32;;;;;;;60.38;27.98;;;27.20;72.50;;;;;;5051986;28;20103;-84
2021/07/27 22:26:57;;;;;;;48.25;24.55;;;27.10;70.70;;;;;;5053239;28;20715;-84
2021/07/27 22:29:23;;;;;;;85.25;38.80;;;27.10;71.20;;;;;;5053090;28;20475;-84
2021/07/27 22:31:49;;;;;;;116.95;51.30;;;27.10;70.60;;;;;;5051971;28;20474;-83
2021/07/27 22:34:15;;;;;;;120.18;50.53;;;27.10;69.00;;;;;;5053201;28;20398;-84
2021/07/27 22:36:41;;;;;;;130.18;55.75;;;27.10;68.30;;;;;;5052050;28;20436;-83
2021/07/27 22:39:07;;;;;;;107.85;48.58;;;27.00;67.00;;;;;;5051918;28;20068;-83
2021/07/27 22:41:32;;;;;;;91.53;40.75;;;27.00;66.80;;;;;;5053596;28;20031;-84
2021/07/27 22:43:58;;;;;;;79.28;35.10;;;27.00;66.70;;;;;;5068731;28;20029;-84
2021/07/27 22:46:24;;;;;;;65.75;29.27;;;27.00;66.40;;;;;;5053509;28;20025;-84
2021/07/27 22:48:50;;;;;;;46.90;24.27;;;27.00;66.40;;;;;;5052022;28;20037;-84
2021/07/27 22:51:16;;;;;;;43.50;20.30;;;27.00;66.40;;;;;;5051945;28;20116;-83
2021/07/27 22:53:41;;;;;;;38.08;17.65;;;27.10;66.90;;;;;;5051921;28;20490;-84
2021/07/27 22:56:07;;;;;;;34.88;15.43;;;27.10;66.40;;;;;;5051951;28;20489;-84
2021/07/27 22:58:33;;;;;;;27.25;12.23;;;27.00;66.40;;;;;;5051798;28;20021;-84
2021/07/27 23:01:00;;;;;;;24.95;10.90;;;27.00;66.40;;;;;;5053150;28;20092;-84
2021/07/27 23:03:26;;;;;;;20.30;9.07;;;27.00;66.80;;;;;;5053072;28;20021;-84
2021/07/27 23:05:52;;;;;;;18.00;8.50;;;27.00;66.70;;;;;;5054258;28;20028;-84
2021/07/27 23:08:17;;;;;;;18.70;9.05;;;27.10;66.90;;;;;;5056875;28;20025;-84
2021/07/27 23:10:43;;;;;;;11.05;6.57;;;27.00;66.10;;;;;;5067785;28;20036;-84
2021/07/27 23:13:09;;;;;;;12.05;6.07;;;27.00;66.40;;;;;;5077070;28;20039;-84
2021/07/27 23:15:36;;;;;;;10.55;6.05;;;27.00;66.70;;;;;;5076685;28;20382;-84
2021/07/27 23:18:02;;;;;;;11.15;5.97;;;27.00;66.70;;;;;;5075404;28;20029;-84
2021/07/27 23:20:28;;;;;;;11.52;6.28;;;27.10;67.00;;;;;;5076335;28;20135;-84
2021/07/27 23:22:55;;;;;;;11.88;6.07;;;27.10;66.90;;;;;;5075344;28;20047;-84
2021/07/27 23:27:55;;;;;;;10.70;6.40;;;27.00;66.90;;;;;;5059548;28;20033;-84
2021/07/27 23:30:22;;;;;;;11.63;7.05;;;27.00;66.80;;;;;;5054877;28;20029;-84
2021/07/27 23:32:48;;;;;;;21.88;10.15;;;27.00;67.40;;;;;;5056734;28;20506;-84
2021/07/27 23:35:14;;;;;;;32.65;16.48;;;27.00;67.10;;;;;;5056645;28;20025;-84
2021/07/27 23:37:41;;;;;;;88.28;39.90;;;27.00;67.20;;;;;;5071684;28;20060;-84
2021/07/27 23:40:07;;;;;;;99.40;42.53;;;27.00;66.10;;;;;;5054972;28;20479;-83
2021/07/27 23:42:33;;;;;;;104.68;47.80;;;27.00;65.90;;;;;;5056161;28;20021;-84
2021/07/27 23:44:59;;;;;;;54.33;24.73;;;26.90;64.20;;;;;;5054937;28;20028;-84
2021/07/27 23:47:25;;;;;;;29.63;15.38;;;26.90;63.80;;;;;;5054889;28;20025;-84
2021/07/27 23:49:50;;;;;;;20.92;11.88;;;26.90;64.20;;;;;;5056112;28;20095;-84
2021/07/27 23:52:16;;;;;;;19.98;9.73;;;26.90;64.40;;;;;;5056323;28;20104;-85
2021/07/27 23:54:43;;;;;;;18.05;10.25;;;26.90;64.70;;;;;;5056035;28;20516;-85
2021/07/27 23:57:08;;;;;;;11.85;8.88;;;26.80;64.00;;;;;;5056256;28;20530;-85
2021/07/27 23:59:38;;;;;;;12.35;7.90;;;26.70;64.00;;;;;;5055834;28;20108;-85
